Airfield :
LOGIN :

Register | Disclaimer

   EN    FR    IT 

 










Legend :    VFR   Marginal VFR   IFR   Intensive IFR   Very Intensive IFR
Visi :
Ceiling :
>= 8 km
>= 3000ft
5 to 8 km
1000 to 3000 ft
1500m to 5 km
500 to 1000 ft
800 to 1500m
200 to 500 ft
< 800m
< 200 ft
Symbols :   Thunderstorms  Fog  Heavy snow  Heavy precipitations  Wind > 20 kt
SIGMETs :     Misc.  Thunderstorms  Icing  Turbulence  Mountain Waves  Volcanic Ashes






- Airport Elevation : 784 ft
- IATA code : TZL


LQTZ - Tuzla

CURRENT METAR :
  • 250530Z VRB01KT CAVOK 20/17 Q1015

EXPIRED METARs :
  • 250500Z VRB01KT 9999 FEW004 18/17 Q1015
  • 250430Z 00000KT CAVOK 18/17 Q1015
  • 250400Z 11002KT 5000 NSC 16/16 Q1014
  • 250330Z 10002KT CAVOK 16/16 Q1014
  • 250300Z 10003KT CAVOK 16/16 Q1014
  • 250230Z 07002KT CAVOK 16/16 Q1014
  • 250200Z 00000KT CAVOK 17/16 Q1014
  • 250130Z VRB01KT CAVOK 17/16 Q1014
  • 250100Z 34003KT 9999 FEW040 18/17 Q1015
  • 250030Z VRB02KT 9999 FEW040 18/17 Q1015

TAF COR TAF LQTZ
Valid from the 25 at 06:00 until the 26 at 06:00 UTC


250500Z 2506/2606 VRB03KT 9999 SCT045 TX26/2511Z TN17/2604Z
PROB40
TEMPO 2511/2518 VRB15KT 4000 TSRA FEW030CB BKN035
PROB30
TEMPO 2600/2604 0500 FG BKN002



MET'MAP, your aeronautical weather chart ! - Copyright ORBIFLY December 2007 - Disclaimer

ORBIFLY MET'MAP TEAM :

Programming & Development : Alexandra Zaïnal
Original concept : Baudouin d'Aumeries
Technical & hardware support : Manuel Goepfert
Assistance : Marc-Olivier Méhu




SOURCES & CREDITS :

   NOAA